Mn Pelican — FMLR — position and weather

sailwx.info

Track history (hours):
 
Tides and Currents Weather Stations Pressure Air Temp Water Temp Dewpoint Dewpoint Depression Visibility Wind Speed Wind Dir Waves Ship Positions

Mn Pelican

Last reported at 2016-May-28 20:33 UTC. Time now 2016-May-28 20:42 UTC.
Position N 50°10' W 002°52'.

Length 155 m; draft 6 m.

Type: Ship. MMSI: 228315700.

Date/timePositionNaut miles runAvg speedWind from/ knotsBaromVisibWave heightAir tempDewpointWater temp
2016-May-28 20:33N 50°10' W 002°52'1616.0
2016-May-28 19:33N 50°18' W 002°30'2317.0
2016-May-28 18:12N 50°30' W 001°59'914.4
2016-May-28 17:33N 50°39' W 001°55'4 4.4
2016-May-28 16:32N 50°42' W 001°59'0 0.0
2016-May-28 15:32N 50°42' W 001°59'0 0.0
2016-May-28 14:32N 50°42' W 001°59'0 0.0
2016-May-28 13:22N 50°42' W 001°59'0 0.0
2016-May-28 12:31N 50°42' W 001°59'0 0.0
2016-May-28 11:33N 50°42' W 001°59'0 0.0
2016-May-28 10:33N 50°42' W 001°59'0 0.0
2016-May-28 09:33N 50°42' W 001°59'4 4.1
2016-May-28 08:33N 50°39' W 001°55'5 5.4
2016-May-28 07:33N 50°34' W 001°52'2813.8
2016-May-28 05:33N 50°07' W 001°56'5513.0
2016-May-28 01:18N 49°42' W 003°13'2814.7
2016-May-27 23:22N 49°28' W 003°51'1314.8
2016-May-27 22:30N 49°22' W 004°08'1515.1
2016-May-27 21:31N 49°15' W 004°28'1515.4
2016-May-27 20:33N 49°07' W 004°47'1515.3
2016-May-27 19:33N 48°60' W 005°08'1515.2
2016-May-27 18:33N 48°52' W 005°28'5814.4
2016-May-27 14:31N 47°54' W 005°39'1515.5
2016-May-27 13:33N 47°41' W 005°31'1615.6
2016-May-27 12:33N 47°26' W 005°23'1915.4
2016-May-27 11:18N 47°08' W 005°13'1115.2
2016-May-27 10:33N 46°58' W 005°07'5613.6
2016-May-27 06:26N 46°06' W 004°35'2312.1
2016-May-27 04:34N 45°45' W 004°24'1515.4
2016-May-27 03:34N 45°30' W 004°16'1515.5
2016-May-27 02:33N 45°16' W 004°08'1615.8
2016-May-27 01:32N 45°01' W 003°60'288 6.4
2016-May-25 04:21N 49°49' W 003°45'1316.4
2016-May-25 03:34N 49°56' W 003°29'1717.4
2016-May-25 02:33N 50°05' W 003°06'1817.3
2016-May-25 01:32N 50°13' W 002°41'3215.5
2016-May-24 23:29N 50°29' W 001°58'1111.8
2016-May-24 22:33N 50°40' W 001°56'3 3.2
2016-May-24 21:33N 50°42' W 001°59'0 0.0
2016-May-24 20:32N 50°42' W 001°59'0 0.0
2016-May-24 19:32N 50°42' W 001°59'0 0.0
2016-May-24 18:31N 50°42' W 001°59'0 0.0
2016-May-24 17:31N 50°42' W 001°59'0 0.0
2016-May-24 16:33N 50°42' W 001°59'4 4.3
2016-May-24 15:33N 50°39' W 001°55'1511.2
2016-May-24 14:14N 50°24' W 001°57'9115.2
2016-May-24 08:13N 49°29' W 003°50'1420.8
2016-May-24 07:33N 49°22' W 004°09'6320.9
2016-May-24 04:33N 48°51' W 005°31'6519.1
2016-May-24 01:09N 47°46' W 005°34'1220.3
2016-May-24 00:33N 47°35' W 005°27'136 2.8
2016-May-22 00:24N 49°40' W 004°04'1416.1
2016-May-21 23:33N 49°48' W 003°47'1615.9
2016-May-21 22:33N 49°57' W 003°27'1515.0
2016-May-21 21:34N 50°04' W 003°07'1413.9
2016-May-21 20:33N 50°11' W 002°48'1312.6
2016-May-21 19:33N 50°17' W 002°31'1212.3
2016-May-21 18:33N 50°23' W 002°14'1312.3
2016-May-21 17:30N 50°31' W 001°57'1010.2
2016-May-21 16:33N 50°40' W 001°56'3 3.1
2016-May-21 15:31N 50°42' W 001°59'0 0.0
2016-May-21 14:31N 50°42' W 001°59'0 0.0
2016-May-21 13:31N 50°42' W 001°59'0 0.0
2016-May-21 12:33N 50°42' W 001°59'0 0.0
2016-May-21 11:33N 50°42' W 001°59'0 0.0
2016-May-21 10:32N 50°42' W 001°59'0 0.0
2016-May-21 09:32N 50°42' W 001°59'0 0.1
2016-May-21 08:33N 50°42' W 001°59'1010.2
2016-May-21 07:33N 50°36' W 001°47'23911.8
2016-May-20 11:19N 47°22' W 005°19'1215.4
2016-May-20 10:33N 47°11' W 005°13'3515.3
2016-May-20 08:17N 46°38' W 004°55'1114.9
2016-May-20 07:33N 46°28' W 004°49'1515.3
2016-May-20 06:33N 46°14' W 004°41'1515.4
2016-May-20 05:34N 45°60' W 004°32'1615.6
2016-May-20 04:33N 45°45' W 004°24'  
Track history (hours):
 
Tides and Currents Weather Stations Pressure Air Temp Water Temp Dewpoint Dewpoint Depression Visibility Wind Speed Wind Dir Waves Ship Positions

Mn Pelican

Last reported at 2016-May-28 20:33 UTC. Time now 2016-May-28 20:42 UTC.
Position N 50°10' W 002°52'.

Length 155 m; draft 6 m.

Type: Ship. MMSI: 228315700.

Date/timePositionNaut miles runAvg speedWind from/ knotsBaromVisibWave heightAir tempDewpointWater temp
2016-May-28 20:33N 50°10' W 002°52'1616.0
2016-May-28 19:33N 50°18' W 002°30'2317.0
2016-May-28 18:12N 50°30' W 001°59'914.4
2016-May-28 17:33N 50°39' W 001°55'4 4.4
2016-May-28 16:32N 50°42' W 001°59'0 0.0
2016-May-28 15:32N 50°42' W 001°59'0 0.0
2016-May-28 14:32N 50°42' W 001°59'0 0.0
2016-May-28 13:22N 50°42' W 001°59'0 0.0
2016-May-28 12:31N 50°42' W 001°59'0 0.0
2016-May-28 11:33N 50°42' W 001°59'0 0.0
2016-May-28 10:33N 50°42' W 001°59'0 0.0
2016-May-28 09:33N 50°42' W 001°59'4 4.1
2016-May-28 08:33N 50°39' W 001°55'5 5.4
2016-May-28 07:33N 50°34' W 001°52'2813.8
2016-May-28 05:33N 50°07' W 001°56'5513.0
2016-May-28 01:18N 49°42' W 003°13'2814.7
2016-May-27 23:22N 49°28' W 003°51'1314.8
2016-May-27 22:30N 49°22' W 004°08'1515.1
2016-May-27 21:31N 49°15' W 004°28'1515.4
2016-May-27 20:33N 49°07' W 004°47'1515.3
2016-May-27 19:33N 48°60' W 005°08'1515.2
2016-May-27 18:33N 48°52' W 005°28'5814.4
2016-May-27 14:31N 47°54' W 005°39'1515.5
2016-May-27 13:33N 47°41' W 005°31'1615.6
2016-May-27 12:33N 47°26' W 005°23'1915.4
2016-May-27 11:18N 47°08' W 005°13'1115.2
2016-May-27 10:33N 46°58' W 005°07'5613.6
2016-May-27 06:26N 46°06' W 004°35'2312.1
2016-May-27 04:34N 45°45' W 004°24'1515.4
2016-May-27 03:34N 45°30' W 004°16'1515.5
2016-May-27 02:33N 45°16' W 004°08'1615.8
2016-May-27 01:32N 45°01' W 003°60'288 6.4
2016-May-25 04:21N 49°49' W 003°45'1316.4
2016-May-25 03:34N 49°56' W 003°29'1717.4
2016-May-25 02:33N 50°05' W 003°06'1817.3
2016-May-25 01:32N 50°13' W 002°41'3215.5
2016-May-24 23:29N 50°29' W 001°58'1111.8
2016-May-24 22:33N 50°40' W 001°56'3 3.2
2016-May-24 21:33N 50°42' W 001°59'0 0.0
2016-May-24 20:32N 50°42' W 001°59'0 0.0
2016-May-24 19:32N 50°42' W 001°59'0 0.0
2016-May-24 18:31N 50°42' W 001°59'0 0.0
2016-May-24 17:31N 50°42' W 001°59'0 0.0
2016-May-24 16:33N 50°42' W 001°59'4 4.3
2016-May-24 15:33N 50°39' W 001°55'1511.2
2016-May-24 14:14N 50°24' W 001°57'9115.2
2016-May-24 08:13N 49°29' W 003°50'1420.8
2016-May-24 07:33N 49°22' W 004°09'6320.9
2016-May-24 04:33N 48°51' W 005°31'6519.1
2016-May-24 01:09N 47°46' W 005°34'1220.3
2016-May-24 00:33N 47°35' W 005°27'136 2.8
2016-May-22 00:24N 49°40' W 004°04'1416.1
2016-May-21 23:33N 49°48' W 003°47'1615.9
2016-May-21 22:33N 49°57' W 003°27'1515.0
2016-May-21 21:34N 50°04' W 003°07'1413.9
2016-May-21 20:33N 50°11' W 002°48'1312.6
2016-May-21 19:33N 50°17' W 002°31'1212.3
2016-May-21 18:33N 50°23' W 002°14'1312.3
2016-May-21 17:30N 50°31' W 001°57'1010.2
2016-May-21 16:33N 50°40' W 001°56'3 3.1
2016-May-21 15:31N 50°42' W 001°59'0 0.0
2016-May-21 14:31N 50°42' W 001°59'0 0.0
2016-May-21 13:31N 50°42' W 001°59'0 0.0
2016-May-21 12:33N 50°42' W 001°59'0 0.0
2016-May-21 11:33N 50°42' W 001°59'0 0.0
2016-May-21 10:32N 50°42' W 001°59'0 0.0
2016-May-21 09:32N 50°42' W 001°59'0 0.1
2016-May-21 08:33N 50°42' W 001°59'1010.2
2016-May-21 07:33N 50°36' W 001°47'23911.8
2016-May-20 11:19N 47°22' W 005°19'1215.4
2016-May-20 10:33N 47°11' W 005°13'3515.3
2016-May-20 08:17N 46°38' W 004°55'1114.9
2016-May-20 07:33N 46°28' W 004°49'1515.3
2016-May-20 06:33N 46°14' W 004°41'1515.4
2016-May-20 05:34N 45°60' W 004°32'1615.6
2016-May-20 04:33N 45°45' W 004°24'  

Dump ship's entire track history